Weather at Leaside Aerodrome [CLOSED]

Public forecast

Using degrees Celsius for public forecast. Weather courtesy of forecast.io.

Closest aviation weather report (METAR) to Leaside Aerodrome

Closest report is Billy Bishop Toronto City Centre Airport, 5.4 nm (9.9 km) SSW.

2024/05/24 00:00 (retrieved 1 hour ago)

CYTZ 240000Z AUTO 30017G24KT 9SM FEW086 24/07 A2982 RMK SLP100 DENSITY ALT 1500FT

Closest aviation forecast (TAF) to Leaside Aerodrome

Closest forecast is Billy Bishop Toronto City Centre Airport, 5.4 nm (9.9 km) SSW.

2024/05/23 20:48 (retrieved 4 hours ago)

TAF CYTZ 231940Z 2320/2420 18010G20KT P6SM BKN080 BECMG 2321/2323 27012KT FM240000 27012KT P6SM FEW080 BECMG 2404/2406 30007KT FM241600 20010KT P6SM SKC RMK FCST BASED ON AUTO OBS NXT FCST BY 240200Z